Terminal Aerodrome Forecast
Issued by NWS

Home | Current Version | Previous Version | Text Only | Print | Product List | Glossary On
Versions: 1 2 3 4 5 6 7 8 9 10 11 12 13 14 15 16 17 18 19 20 21 22 23
399
FTUS43 KGRR 261322 AAA
TAFBTL
TAF AMD
KBTL 261322Z 2613/2712 11007KT 6SM BR OVC005
     FM261600 13008KT 2SM -RA BR OVC012
     FM261800 15008KT 1SM RA BR OVC006
     FM262000 17008KT 5SM -RA BR OVC015
     FM262300 18008KT P6SM OVC050
     FM270200 20008KT 2SM BR BKN001 OVC002
     FM270500 24007KT 1/2SM -DZ FG VV001=

USA.gov is the U.S. government's official web portal to all federal, state and local government web resources and services.